sensor_id;sensor_type;location;lat;lon;timestamp;pressure;altitude;pressure_sealevel;temperature;humidity
50125;BME280;36023;48.670;6.184;2023-01-30T00:01:52;99884.44;;;14.29;39.77
50125;BME280;36023;48.670;6.184;2023-01-30T00:04:18;99877.50;;;14.28;39.83
50125;BME280;36023;48.670;6.184;2023-01-30T00:06:43;99890.53;;;14.28;39.62
50125;BME280;36023;48.670;6.184;2023-01-30T00:09:12;99902.72;;;14.27;39.52
50125;BME280;36023;48.670;6.184;2023-01-30T00:11:39;99896.69;;;14.25;39.40
50125;BME280;36023;48.670;6.184;2023-01-30T00:14:05;99912.31;;;14.25;39.38
50125;BME280;36023;48.670;6.184;2023-01-30T00:16:30;99916.66;;;14.25;39.40
50125;BME280;36023;48.670;6.184;2023-01-30T00:18:56;99921.88;;;14.23;39.45
50125;BME280;36023;48.670;6.184;2023-01-30T00:21:22;99927.09;;;14.23;39.38
50125;BME280;36023;48.670;6.184;2023-01-30T00:23:47;99934.06;;;14.22;39.52
50125;BME280;36023;48.670;6.184;2023-01-30T00:26:13;99940.19;;;14.20;39.46
50125;BME280;36023;48.670;6.184;2023-01-30T00:28:39;99944.50;;;14.21;39.37
50125;BME280;36023;48.670;6.184;2023-01-30T00:31:05;99928.88;;;14.21;39.33
50125;BME280;36023;48.670;6.184;2023-01-30T00:33:32;99934.09;;;14.21;39.40
50125;BME280;36023;48.670;6.184;2023-01-30T00:36:00;99935.03;;;14.18;39.36
50125;BME280;36023;48.670;6.184;2023-01-30T00:38:27;99931.53;;;14.19;39.26
50125;BME280;36023;48.670;6.184;2023-01-30T00:40:52;99935.91;;;14.17;39.22
50125;BME280;36023;48.670;6.184;2023-01-30T00:43:19;99947.19;;;14.18;39.25
50125;BME280;36023;48.670;6.184;2023-01-30T00:46:17;99950.69;;;14.15;39.23
50125;BME280;36023;48.670;6.184;2023-01-30T00:49:04;99943.78;;;14.14;39.27
50125;BME280;36023;48.670;6.184;2023-01-30T00:51:30;99936.84;;;14.13;39.16
50125;BME280;36023;48.670;6.184;2023-01-30T00:53:56;99939.50;;;14.12;39.20
50125;BME280;36023;48.670;6.184;2023-01-30T00:56:22;99956.00;;;14.12;38.52
50125;BME280;36023;48.670;6.184;2023-01-30T00:58:48;99960.34;;;14.12;39.13
50125;BME280;36023;48.670;6.184;2023-01-30T01:01:15;99960.34;;;14.12;39.21
50125;BME280;36023;48.670;6.184;2023-01-30T01:03:40;99949.91;;;14.12;39.18
50125;BME280;36023;48.670;6.184;2023-01-30T01:06:06;99933.44;;;14.11;39.01
50125;BME280;36023;48.670;6.184;2023-01-30T01:08:31;99934.28;;;14.12;38.95
50125;BME280;36023;48.670;6.184;2023-01-30T01:10:57;99936.03;;;14.11;39.04
50125;BME280;36023;48.670;6.184;2023-01-30T01:13:24;99928.25;;;14.10;38.95
50125;BME280;36023;48.670;6.184;2023-01-30T01:15:50;99909.19;;;14.09;38.66
50125;BME280;36023;48.670;6.184;2023-01-30T01:18:16;99911.78;;;14.08;38.81
50125;BME280;36023;48.670;6.184;2023-01-30T01:20:41;99897.00;;;14.08;38.89
50125;BME280;36023;48.670;6.184;2023-01-30T01:23:09;99881.38;;;14.08;38.81
50125;BME280;36023;48.670;6.184;2023-01-30T01:25:35;99872.72;;;14.08;38.82
50125;BME280;36023;48.670;6.184;2023-01-30T01:28:00;99879.69;;;14.07;38.82
50125;BME280;36023;48.670;6.184;2023-01-30T01:30:26;99874.47;;;14.07;38.79
50125;BME280;36023;48.670;6.184;2023-01-30T01:32:52;99865.78;;;14.07;38.78
50125;BME280;36023;48.670;6.184;2023-01-30T01:35:17;99887.50;;;14.07;38.77
50125;BME280;36023;48.670;6.184;2023-01-30T01:37:44;99890.13;;;14.06;38.71
50125;BME280;36023;48.670;6.184;2023-01-30T01:40:17;99889.28;;;14.05;38.67
50125;BME280;36023;48.670;6.184;2023-01-30T01:43:14;99886.72;;;14.04;38.71
50125;BME280;36023;48.670;6.184;2023-01-30T01:45:40;99884.06;;;14.05;38.61
50125;BME280;36023;48.670;6.184;2023-01-30T01:48:13;99873.69;;;14.04;38.70
50125;BME280;36023;48.670;6.184;2023-01-30T01:50:52;99866.78;;;14.03;38.65
50125;BME280;36023;48.670;6.184;2023-01-30T01:53:25;99862.41;;;14.03;38.54
50125;BME280;36023;48.670;6.184;2023-01-30T01:55:54;99859.00;;;14.01;38.59
50125;BME280;36023;48.670;6.184;2023-01-30T01:58:33;99849.44;;;14.02;38.60
50125;BME280;36023;48.670;6.184;2023-01-30T02:01:00;99855.50;;;14.01;38.45
50125;BME280;36023;48.670;6.184;2023-01-30T02:03:29;99839.91;;;13.99;38.43
50125;BME280;36023;48.670;6.184;2023-01-30T02:06:00;99819.94;;;14.00;38.58
50125;BME280;36023;48.670;6.184;2023-01-30T02:08:34;99812.13;;;14.00;38.51
50125;BME280;36023;48.670;6.184;2023-01-30T02:11:21;99815.63;;;13.99;38.39
50125;BME280;36023;48.670;6.184;2023-01-30T02:13:50;99796.59;;;13.97;38.38
50125;BME280;36023;48.670;6.184;2023-01-30T02:16:17;99794.84;;;13.97;38.59
50125;BME280;36023;48.670;6.184;2023-01-30T02:18:44;99798.34;;;13.96;38.36
50125;BME280;36023;48.670;6.184;2023-01-30T02:21:42;99767.97;;;13.95;38.40
50125;BME280;36023;48.670;6.184;2023-01-30T02:24:24;99761.91;;;13.94;38.18
50125;BME280;36023;48.670;6.184;2023-01-30T02:27:19;99750.66;;;13.92;38.35
50125;BME280;36023;48.670;6.184;2023-01-30T02:32:33;99755.84;;;13.92;38.16
50125;BME280;36023;48.670;6.184;2023-01-30T02:45:59;99760.25;;;13.90;38.21
50125;BME280;36023;48.670;6.184;2023-01-30T02:51:19;99735.13;;;13.89;38.15
50125;BME280;36023;48.670;6.184;2023-01-30T02:53:48;99739.47;;;13.89;38.20
50125;BME280;36023;48.670;6.184;2023-01-30T02:56:17;99757.69;;;13.89;37.92
50125;BME280;36023;48.670;6.184;2023-01-30T02:59:04;99766.41;;;13.88;38.12
50125;BME280;36023;48.670;6.184;2023-01-30T03:04:30;99775.97;;;13.87;38.05
50125;BME280;36023;48.670;6.184;2023-01-30T03:07:24;99776.84;;;13.86;38.14
50125;BME280;36023;48.670;6.184;2023-01-30T03:12:35;99791.63;;;13.86;38.04
50125;BME280;36023;48.670;6.184;2023-01-30T03:15:06;99804.59;;;13.87;38.04
50125;BME280;36023;48.670;6.184;2023-01-30T03:17:35;99799.44;;;13.86;38.15
50125;BME280;36023;48.670;6.184;2023-01-30T03:20:02;99795.09;;;13.86;38.24
50125;BME280;36023;48.670;6.184;2023-01-30T03:22:28;99786.41;;;13.86;37.99
50125;BME280;36023;48.670;6.184;2023-01-30T03:24:54;99782.06;;;13.85;37.95
50125;BME280;36023;48.670;6.184;2023-01-30T03:27:21;99782.06;;;13.85;38.00
50125;BME280;36023;48.670;6.184;2023-01-30T03:29:47;99772.56;;;13.84;38.02
50125;BME280;36023;48.670;6.184;2023-01-30T03:32:14;99777.75;;;13.84;38.03
50125;BME280;36023;48.670;6.184;2023-01-30T03:34:39;99773.41;;;13.84;37.99
50125;BME280;36023;48.670;6.184;2023-01-30T03:37:06;99769.09;;;13.83;37.94
50125;BME280;36023;48.670;6.184;2023-01-30T03:39:34;99769.09;;;13.83;37.89
50125;BME280;36023;48.670;6.184;2023-01-30T03:42:01;99769.94;;;13.84;37.93
50125;BME280;36023;48.670;6.184;2023-01-30T03:44:27;99763.88;;;13.83;37.95
50125;BME280;36023;48.670;6.184;2023-01-30T03:46:52;99759.56;;;13.82;37.90
50125;BME280;36023;48.670;6.184;2023-01-30T03:49:18;99763.03;;;13.83;37.91
50125;BME280;36023;48.670;6.184;2023-01-30T03:51:46;99774.34;;;13.82;37.81
50125;BME280;36023;48.670;6.184;2023-01-30T03:54:12;99777.81;;;13.82;37.76
50125;BME280;36023;48.670;6.184;2023-01-30T03:56:39;99771.75;;;13.82;37.88
50125;BME280;36023;48.670;6.184;2023-01-30T03:59:06;99784.75;;;13.82;37.75
50125;BME280;36023;48.670;6.184;2023-01-30T04:01:38;99776.97;;;13.80;37.87
50125;BME280;36023;48.670;6.184;2023-01-30T04:04:04;99783.09;;;13.79;37.86
50125;BME280;36023;48.670;6.184;2023-01-30T04:06:30;99772.66;;;13.79;37.91
50125;BME280;36023;48.670;6.184;2023-01-30T04:08:55;99765.75;;;13.78;37.83
50125;BME280;36023;48.670;6.184;2023-01-30T04:11:35;99762.25;;;13.79;37.66
50125;BME280;36023;48.670;6.184;2023-01-30T04:14:01;99771.81;;;13.79;37.85
50125;BME280;36023;48.670;6.184;2023-01-30T04:16:27;99771.81;;;13.77;37.99
50125;BME280;36023;48.670;6.184;2023-01-30T04:19:28;99776.16;;;13.78;37.68
50125;BME280;36023;48.670;6.184;2023-01-30T04:21:54;99770.97;;;13.77;37.70
50125;BME280;36023;48.670;6.184;2023-01-30T04:24:20;99774.47;;;13.76;37.64
50125;BME280;36023;48.670;6.184;2023-01-30T04:26:45;99775.31;;;13.76;37.72
50125;BME280;36023;48.670;6.184;2023-01-30T04:29:11;99775.31;;;13.76;37.85
50125;BME280;36023;48.670;6.184;2023-01-30T04:31:38;99771.88;;;13.76;37.15
50125;BME280;36023;48.670;6.184;2023-01-30T04:34:17;99770.13;;;13.76;37.83
50125;BME280;36023;48.670;6.184;2023-01-30T04:36:42;99759.69;;;13.76;37.84
50125;BME280;36023;48.670;6.184;2023-01-30T04:39:08;99751.06;;;13.74;37.69
50125;BME280;36023;48.670;6.184;2023-01-30T04:41:34;99751.06;;;13.74;37.47
50125;BME280;36023;48.670;6.184;2023-01-30T04:44:00;99756.28;;;13.74;37.70
50125;BME280;36023;48.670;6.184;2023-01-30T04:46:44;99733.75;;;13.73;37.93
50125;BME280;36023;48.670;6.184;2023-01-30T04:49:12;99726.84;;;13.72;37.77
50125;BME280;36023;48.670;6.184;2023-01-30T04:51:39;99726.84;;;13.72;37.71
50125;BME280;36023;48.670;6.184;2023-01-30T04:54:05;99714.69;;;13.73;37.70
50125;BME280;36023;48.670;6.184;2023-01-30T04:56:31;99727.72;;;13.71;37.82
50125;BME280;36023;48.670;6.184;2023-01-30T04:58:59;99710.41;;;13.70;37.57
50125;BME280;36023;48.670;6.184;2023-01-30T05:01:32;99693.94;;;13.70;37.58
50125;BME280;36023;48.670;6.184;2023-01-30T05:03:58;99685.22;;;13.71;37.55
50125;BME280;36023;48.670;6.184;2023-01-30T05:06:24;99676.56;;;13.69;37.75
50125;BME280;36023;48.670;6.184;2023-01-30T05:08:51;99687.84;;;13.69;37.94
50125;BME280;36023;48.670;6.184;2023-01-30T05:11:18;99705.19;;;13.70;38.10
50125;BME280;36023;48.670;6.184;2023-01-30T05:13:44;99732.78;;;13.77;38.28
50125;BME280;36023;48.670;6.184;2023-01-30T05:16:11;99726.53;;;13.84;38.44
50125;BME280;36023;48.670;6.184;2023-01-30T05:18:38;99726.34;;;13.93;38.50
50125;BME280;36023;48.670;6.184;2023-01-30T05:21:13;99727.84;;;14.04;38.41
50125;BME280;36023;48.670;6.184;2023-01-30T05:23:39;99745.81;;;14.14;38.59
50125;BME280;36023;48.670;6.184;2023-01-30T05:26:05;99723.88;;;14.23;38.46
50125;BME280;36023;48.670;6.184;2023-01-30T05:28:31;99718.47;;;14.31;38.44
50125;BME280;36023;48.670;6.184;2023-01-30T05:31:06;99713.13;;;14.37;38.29
50125;BME280;36023;48.670;6.184;2023-01-30T05:33:32;99710.31;;;14.46;38.22
50125;BME280;36023;48.670;6.184;2023-01-30T05:35:58;99722.34;;;14.52;38.22
50125;BME280;36023;48.670;6.184;2023-01-30T05:38:24;99723.94;;;14.57;38.03
50125;BME280;36023;48.670;6.184;2023-01-30T05:40:58;99712.47;;;14.63;38.18
50125;BME280;36023;48.670;6.184;2023-01-30T05:43:24;99721.94;;;14.67;37.80
50125;BME280;36023;48.670;6.184;2023-01-30T05:45:54;99714.00;;;14.71;37.97
50125;BME280;36023;48.670;6.184;2023-01-30T05:48:21;99701.75;;;14.75;37.74
50125;BME280;36023;48.670;6.184;2023-01-30T05:50:49;99684.22;;;14.80;37.75
50125;BME280;36023;48.670;6.184;2023-01-30T05:53:17;99678.91;;;14.83;37.56
50125;BME280;36023;48.670;6.184;2023-01-30T05:55:42;99660.56;;;14.86;37.68
50125;BME280;36023;48.670;6.184;2023-01-30T05:58:09;99652.66;;;14.89;37.68
50125;BME280;36023;48.670;6.184;2023-01-30T06:00:35;99657.78;;;14.92;37.82
50125;BME280;36023;48.670;6.184;2023-01-30T06:03:01;99672.47;;;14.96;37.32
50125;BME280;36023;48.670;6.184;2023-01-30T06:05:27;99671.56;;;14.97;37.65
50125;BME280;36023;48.670;6.184;2023-01-30T06:07:52;99673.22;;;15.00;37.44
50125;BME280;36023;48.670;6.184;2023-01-30T06:10:18;99689.69;;;15.02;37.42
50125;BME280;36023;48.670;6.184;2023-01-30T06:12:43;99698.28;;;15.05;37.44
50125;BME280;36023;48.670;6.184;2023-01-30T06:15:10;99693.91;;;15.06;37.55
50125;BME280;36023;48.670;6.184;2023-01-30T06:17:35;99687.75;;;15.09;37.62
50125;BME280;36023;48.670;6.184;2023-01-30T06:20:01;99675.53;;;15.11;37.45
50125;BME280;36023;48.670;6.184;2023-01-30T06:22:27;99665.06;;;15.12;37.43
50125;BME280;36023;48.670;6.184;2023-01-30T06:24:52;99645.03;;;15.13;37.30
50125;BME280;36023;48.670;6.184;2023-01-30T06:27:18;99652.81;;;15.14;37.34
50125;BME280;36023;48.670;6.184;2023-01-30T06:29:43;99658.03;;;15.14;37.27
50125;BME280;36023;48.670;6.184;2023-01-30T06:32:10;99648.44;;;15.15;37.35
50125;BME280;36023;48.670;6.184;2023-01-30T06:34:36;99650.25;;;15.13;37.15
50125;BME280;36023;48.670;6.184;2023-01-30T06:37:02;99653.75;;;15.12;37.20
50125;BME280;36023;48.670;6.184;2023-01-30T06:39:27;99661.66;;;15.10;37.07
50125;BME280;36023;48.670;6.184;2023-01-30T06:41:53;99661.66;;;15.09;37.20
50125;BME280;36023;48.670;6.184;2023-01-30T06:44:18;99664.31;;;15.07;37.02
50125;BME280;36023;48.670;6.184;2023-01-30T06:46:44;99660.97;;;15.03;36.74
50125;BME280;36023;48.670;6.184;2023-01-30T06:49:10;99649.66;;;15.03;37.17
50125;BME280;36023;48.670;6.184;2023-01-30T06:51:36;99654.97;;;15.00;37.09
50125;BME280;36023;48.670;6.184;2023-01-30T06:54:03;99662.88;;;14.97;37.10
50125;BME280;36023;48.670;6.184;2023-01-30T06:56:29;99663.84;;;14.94;37.02
50125;BME280;36023;48.670;6.184;2023-01-30T06:58:55;99675.25;;;14.90;37.15
50125;BME280;36023;48.670;6.184;2023-01-30T07:01:22;99685.78;;;14.87;37.21
50125;BME280;36023;48.670;6.184;2023-01-30T07:03:48;99701.53;;;14.83;37.06
50125;BME280;36023;48.670;6.184;2023-01-30T07:06:13;99696.47;;;14.76;37.17
50125;BME280;36023;48.670;6.184;2023-01-30T07:08:39;99694.81;;;14.74;37.06
50125;BME280;36023;48.670;6.184;2023-01-30T07:11:05;99694.06;;;14.69;37.17
50125;BME280;36023;48.670;6.184;2023-01-30T07:13:31;99708.16;;;14.63;37.17
50125;BME280;36023;48.670;6.184;2023-01-30T07:15:57;99707.34;;;14.60;37.01
50125;BME280;36023;48.670;6.184;2023-01-30T07:18:23;99699.63;;;14.57;37.08
50125;BME280;36023;48.670;6.184;2023-01-30T07:20:49;99707.50;;;14.54;37.00
50125;BME280;36023;48.670;6.184;2023-01-30T07:23:14;99706.78;;;14.48;37.06
50125;BME280;36023;48.670;6.184;2023-01-30T07:25:40;99715.53;;;14.44;36.93
50125;BME280;36023;48.670;6.184;2023-01-30T07:28:06;99719.94;;;14.42;37.03
50125;BME280;36023;48.670;6.184;2023-01-30T07:30:33;99723.50;;;14.40;37.26
50125;BME280;36023;48.670;6.184;2023-01-30T07:33:03;99729.63;;;14.37;37.18
50125;BME280;36023;48.670;6.184;2023-01-30T07:35:32;99731.38;;;14.37;37.13
50125;BME280;36023;48.670;6.184;2023-01-30T07:37:58;99724.50;;;14.34;37.29
50125;BME280;36023;48.670;6.184;2023-01-30T07:40:24;99727.09;;;14.34;37.14
50125;BME280;36023;48.670;6.184;2023-01-30T07:45:27;99719.38;;;14.30;37.34
50125;BME280;36023;48.670;6.184;2023-01-30T07:47:54;99719.44;;;14.28;37.80
50125;BME280;36023;48.670;6.184;2023-01-30T07:50:19;99723.78;;;14.28;37.33
50125;BME280;36023;48.670;6.184;2023-01-30T07:52:47;99731.66;;;14.26;37.59
50125;BME280;36023;48.670;6.184;2023-01-30T07:55:13;99748.19;;;14.25;37.43
50125;BME280;36023;48.670;6.184;2023-01-30T07:57:39;99749.94;;;14.23;37.47
50125;BME280;36023;48.670;6.184;2023-01-30T08:00:07;99747.38;;;14.21;37.51
50125;BME280;36023;48.670;6.184;2023-01-30T08:02:35;99767.38;;;14.21;37.52
50125;BME280;36023;48.670;6.184;2023-01-30T08:05:01;99744.81;;;14.20;37.49
50125;BME280;36023;48.670;6.184;2023-01-30T08:07:27;99750.91;;;14.19;37.54
50125;BME280;36023;48.670;6.184;2023-01-30T08:09:52;99737.09;;;14.17;37.51
50125;BME280;36023;48.670;6.184;2023-01-30T08:12:18;99745.75;;;14.16;37.50
50125;BME280;36023;48.670;6.184;2023-01-30T08:14:44;99748.38;;;14.16;37.62
50125;BME280;36023;48.670;6.184;2023-01-30T08:17:10;99763.19;;;14.14;37.66
50125;BME280;36023;48.670;6.184;2023-01-30T08:19:35;99765.78;;;14.14;37.66
50125;BME280;36023;48.670;6.184;2023-01-30T08:22:01;99761.53;;;14.11;37.78
50125;BME280;36023;48.670;6.184;2023-01-30T08:24:26;99756.31;;;14.11;37.86
50125;BME280;36023;48.670;6.184;2023-01-30T08:26:52;99749.41;;;14.10;37.75
50125;BME280;36023;48.670;6.184;2023-01-30T08:29:18;99743.34;;;14.10;37.77
50125;BME280;36023;48.670;6.184;2023-01-30T08:31:44;99739.88;;;14.08;37.75
50125;BME280;36023;48.670;6.184;2023-01-30T08:34:10;99726.00;;;14.07;37.84
50125;BME280;36023;48.670;6.184;2023-01-30T08:36:36;99732.09;;;14.06;37.98
50125;BME280;36023;48.670;6.184;2023-01-30T08:39:02;99743.44;;;14.05;37.78
50125;BME280;36023;48.670;6.184;2023-01-30T08:41:27;99734.75;;;14.05;38.05
50125;BME280;36023;48.670;6.184;2023-01-30T08:43:53;99739.13;;;14.04;38.10
50125;BME280;36023;48.670;6.184;2023-01-30T08:46:19;99727.88;;;14.02;37.98
50125;BME280;36023;48.670;6.184;2023-01-30T08:48:47;99732.25;;;14.00;38.05
50125;BME280;36023;48.670;6.184;2023-01-30T08:51:14;99743.53;;;14.01;37.94
50125;BME280;36023;48.670;6.184;2023-01-30T08:53:42;99732.25;;;14.00;38.03
50125;BME280;36023;48.670;6.184;2023-01-30T08:56:09;99730.53;;;13.99;38.18
50125;BME280;36023;48.670;6.184;2023-01-30T08:58:35;99730.59;;;13.98;38.23
50125;BME280;36023;48.670;6.184;2023-01-30T09:01:05;99720.16;;;13.98;38.08
50125;BME280;36023;48.670;6.184;2023-01-30T09:03:30;99721.06;;;13.97;38.25
50125;BME280;36023;48.670;6.184;2023-01-30T09:05:56;99715.00;;;13.96;38.29
50125;BME280;36023;48.670;6.184;2023-01-30T09:08:22;99712.44;;;13.94;38.28
50125;BME280;36023;48.670;6.184;2023-01-30T09:10:47;99709.84;;;13.94;38.32
50125;BME280;36023;48.670;6.184;2023-01-30T09:13:13;99710.69;;;13.95;38.34
50125;BME280;36023;48.670;6.184;2023-01-30T09:15:42;99714.16;;;13.96;38.54
50125;BME280;36023;48.670;6.184;2023-01-30T09:18:08;99715.94;;;13.93;38.39
50125;BME280;36023;48.670;6.184;2023-01-30T09:20:34;99718.56;;;13.92;38.25
50125;BME280;36023;48.670;6.184;2023-01-30T09:23:01;99702.06;;;13.91;38.44
50125;BME280;36023;48.670;6.184;2023-01-30T09:25:26;99709.88;;;13.91;38.27
50125;BME280;36023;48.670;6.184;2023-01-30T09:27:52;99710.78;;;13.90;38.43
50125;BME280;36023;48.670;6.184;2023-01-30T09:30:18;99719.50;;;13.89;38.37
50125;BME280;36023;48.670;6.184;2023-01-30T09:32:44;99728.19;;;13.88;38.48
50125;BME280;36023;48.670;6.184;2023-01-30T09:35:10;99722.13;;;13.88;38.46
50125;BME280;36023;48.670;6.184;2023-01-30T09:37:35;99723.00;;;13.88;38.46
50125;BME280;36023;48.670;6.184;2023-01-30T09:40:01;99719.53;;;13.88;38.52
50125;BME280;36023;48.670;6.184;2023-01-30T09:42:39;99711.72;;;13.88;38.55
50125;BME280;36023;48.670;6.184;2023-01-30T09:45:25;99708.25;;;13.87;38.67
50125;BME280;36023;48.670;6.184;2023-01-30T09:48:06;99700.44;;;13.87;38.58
50125;BME280;36023;48.670;6.184;2023-01-30T09:55:46;99693.38;;;13.92;38.63
50125;BME280;36023;48.670;6.184;2023-01-30T09:58:17;99686.44;;;13.91;38.57
50125;BME280;36023;48.670;6.184;2023-01-30T10:00:43;99689.09;;;13.90;38.70
50125;BME280;36023;48.670;6.184;2023-01-30T10:03:44;99711.69;;;13.89;38.76
50125;BME280;36023;48.670;6.184;2023-01-30T10:06:14;99706.50;;;13.88;38.74
50125;BME280;36023;48.670;6.184;2023-01-30T10:08:48;99708.25;;;13.87;38.70
50125;BME280;36023;48.670;6.184;2023-01-30T10:16:57;99705.66;;;13.87;38.85
50125;BME280;36023;48.670;6.184;2023-01-30T10:19:43;99722.19;;;13.86;38.88
50125;BME280;36023;48.670;6.184;2023-01-30T10:27:53;99697.00;;;13.87;39.06
50125;BME280;36023;48.670;6.184;2023-01-30T10:30:23;99688.34;;;13.86;39.31
50125;BME280;36023;48.670;6.184;2023-01-30T10:32:58;99684.03;;;13.85;39.43
50125;BME280;36023;48.670;6.184;2023-01-30T10:35:33;99686.53;;;13.88;40.73
50125;BME280;36023;48.670;6.184;2023-01-30T10:38:18;99682.03;;;13.95;42.54
50125;BME280;36023;48.670;6.184;2023-01-30T10:40:53;99696.50;;;14.07;43.74
50125;BME280;36023;48.670;6.184;2023-01-30T10:43:23;99704.16;;;14.13;44.58
50125;BME280;36023;48.670;6.184;2023-01-30T10:46:01;99701.47;;;14.16;45.09
50125;BME280;36023;48.670;6.184;2023-01-30T10:48:50;99697.16;;;14.16;45.21
50125;BME280;36023;48.670;6.184;2023-01-30T10:51:27;99694.56;;;14.15;45.67
50125;BME280;36023;48.670;6.184;2023-01-30T10:54:07;99690.28;;;14.12;45.76
50125;BME280;36023;48.670;6.184;2023-01-30T11:05:01;99655.72;;;14.06;46.53
50125;BME280;36023;48.670;6.184;2023-01-30T11:07:30;99665.28;;;14.05;46.68
50125;BME280;36023;48.670;6.184;2023-01-30T11:09:57;99660.16;;;14.02;46.84
50125;BME280;36023;48.670;6.184;2023-01-30T11:12:24;99661.06;;;14.01;46.75
50125;BME280;36023;48.670;6.184;2023-01-30T11:14:58;99663.72;;;13.98;47.06
50125;BME280;36023;48.670;6.184;2023-01-30T11:17:39;99660.28;;;13.98;47.02
50125;BME280;36023;48.670;6.184;2023-01-30T11:20:15;99650.78;;;13.95;47.13
50125;BME280;36023;48.670;6.184;2023-01-30T11:22:47;99650.00;;;13.93;46.78
50125;BME280;36023;48.670;6.184;2023-01-30T11:25:18;99647.38;;;13.93;47.09
50125;BME280;36023;48.670;6.184;2023-01-30T11:27:54;99650.91;;;13.90;47.18
50125;BME280;36023;48.670;6.184;2023-01-30T11:30:26;99670.03;;;13.89;47.05
50125;BME280;36023;48.670;6.184;2023-01-30T11:33:04;99659.66;;;13.88;47.26
50125;BME280;36023;48.670;6.184;2023-01-30T11:35:32;99650.13;;;13.87;47.03
50125;BME280;36023;48.670;6.184;2023-01-30T11:38:21;99646.66;;;13.86;47.17
50125;BME280;36023;48.670;6.184;2023-01-30T11:40:47;99641.53;;;13.83;47.14
50125;BME280;36023;48.670;6.184;2023-01-30T11:43:13;99639.81;;;13.82;47.16
50125;BME280;36023;48.670;6.184;2023-01-30T11:45:46;99632.91;;;13.81;47.14
50125;BME280;36023;48.670;6.184;2023-01-30T11:48:18;99641.59;;;13.80;46.97
50125;BME280;36023;48.670;6.184;2023-01-30T11:50:47;99632.09;;;13.79;46.89
50125;BME280;36023;48.670;6.184;2023-01-30T11:55:50;99652.97;;;13.78;46.83
50125;BME280;36023;48.670;6.184;2023-01-30T11:58:16;99650.38;;;13.76;46.73
50125;BME280;36023;48.670;6.184;2023-01-30T12:00:46;99643.50;;;13.74;46.67
50125;BME280;36023;48.670;6.184;2023-01-30T12:03:15;99649.59;;;13.73;46.55
50125;BME280;36023;48.670;6.184;2023-01-30T12:05:44;99648.75;;;13.72;46.46
50125;BME280;36023;48.670;6.184;2023-01-30T12:08:24;99656.56;;;13.72;46.35
50125;BME280;36023;48.670;6.184;2023-01-30T12:10:53;99647.03;;;13.71;46.44
50125;BME280;36023;48.670;6.184;2023-01-30T12:15:54;99637.53;;;13.70;46.21
50125;BME280;36023;48.670;6.184;2023-01-30T12:18:27;99639.28;;;13.70;46.26
50125;BME280;36023;48.670;6.184;2023-01-30T12:21:00;99636.69;;;13.68;46.15
50125;BME280;36023;48.670;6.184;2023-01-30T12:23:51;99633.19;;;13.69;46.10
50125;BME280;36023;48.670;6.184;2023-01-30T12:34:37;99617.59;;;13.68;45.80
50125;BME280;36023;48.670;6.184;2023-01-30T12:43:00;99610.75;;;13.65;45.65
50125;BME280;36023;48.670;6.184;2023-01-30T12:45:39;99622.00;;;13.65;45.58
50125;BME280;36023;48.670;6.184;2023-01-30T12:54:14;99639.38;;;13.65;45.49
50125;BME280;36023;48.670;6.184;2023-01-30T13:10:48;99618.63;;;13.62;44.90
50125;BME280;36023;48.670;6.184;2023-01-30T13:20:56;99603.03;;;13.60;44.84
50125;BME280;36023;48.670;6.184;2023-01-30T13:26:19;99596.91;;;13.63;45.07
50125;BME280;36023;48.670;6.184;2023-01-30T13:28:55;99602.88;;;13.66;45.16
50125;BME280;36023;48.670;6.184;2023-01-30T13:31:23;99610.66;;;13.68;45.30
50125;BME280;36023;48.670;6.184;2023-01-30T13:34:06;99607.94;;;13.73;45.66
50125;BME280;36023;48.670;6.184;2023-01-30T13:36:52;99606.09;;;13.78;45.62
50125;BME280;36023;48.670;6.184;2023-01-30T13:39:29;99605.13;;;13.82;46.34
50125;BME280;36023;48.670;6.184;2023-01-30T13:41:59;99605.88;;;13.87;46.60
50125;BME280;36023;48.670;6.184;2023-01-30T13:44:31;99617.03;;;13.90;46.75
50125;BME280;36023;48.670;6.184;2023-01-30T13:47:12;99619.56;;;13.95;47.00
50125;BME280;36023;48.670;6.184;2023-01-30T13:49:49;99623.78;;;13.99;47.83
50125;BME280;36023;48.670;6.184;2023-01-30T13:52:28;99623.66;;;14.04;47.97
50125;BME280;36023;48.670;6.184;2023-01-30T13:55:12;99627.88;;;14.08;48.29
50125;BME280;36023;48.670;6.184;2023-01-30T13:57:54;99633.94;;;14.08;47.93
50125;BME280;36023;48.670;6.184;2023-01-30T14:00:33;99631.38;;;14.07;47.83
50125;BME280;36023;48.670;6.184;2023-01-30T14:08:21;99645.25;;;14.09;47.34
50125;BME280;36023;48.670;6.184;2023-01-30T14:10:51;99639.16;;;14.08;47.38
50125;BME280;36023;48.670;6.184;2023-01-30T14:13:17;99636.56;;;14.08;47.25
50125;BME280;36023;48.670;6.184;2023-01-30T14:15:54;99648.72;;;14.09;47.05
50125;BME280;36023;48.670;6.184;2023-01-30T14:21:21;99646.16;;;14.06;46.86
50125;BME280;36023;48.670;6.184;2023-01-30T14:24:01;99647.06;;;14.05;46.54
50125;BME280;36023;48.670;6.184;2023-01-30T14:40:25;99660.34;;;13.94;46.02
50125;BME280;36023;48.670;6.184;2023-01-30T14:45:49;99657.81;;;13.91;46.00
50125;BME280;36023;48.670;6.184;2023-01-30T15:04:43;99694.50;;;13.82;45.50
50125;BME280;36023;48.670;6.184;2023-01-30T15:09:50;99698.84;;;13.82;45.64
50125;BME280;36023;48.670;6.184;2023-01-30T15:32:32;99747.16;;;14.31;45.33
50125;BME280;36023;48.670;6.184;2023-01-30T15:35:01;99749.66;;;14.35;45.11
50125;BME280;36023;48.670;6.184;2023-01-30T15:45:32;99764.84;;;14.54;44.77
50125;BME280;36023;48.670;6.184;2023-01-30T15:50:39;99755.09;;;14.62;44.68
50125;BME280;36023;48.670;6.184;2023-01-30T15:53:12;99764.56;;;14.66;44.60
50125;BME280;36023;48.670;6.184;2023-01-30T15:55:41;99762.75;;;14.68;44.63
50125;BME280;36023;48.670;6.184;2023-01-30T15:58:15;99773.06;;;14.72;44.45
50125;BME280;36023;48.670;6.184;2023-01-30T16:00:47;99777.34;;;14.75;44.52
50125;BME280;36023;48.670;6.184;2023-01-30T16:03:17;99777.25;;;14.78;44.34
50125;BME280;36023;48.670;6.184;2023-01-30T16:05:49;99773.75;;;14.81;44.44
50125;BME280;36023;48.670;6.184;2023-01-30T16:08:32;99790.19;;;14.83;44.23